createdAt,value
2019-02-02T00:00:52.112Z,14.07
2019-02-02T00:03:24.301Z,13.30
2019-02-02T00:05:56.000Z,13.10
2019-02-02T00:08:26.961Z,11.90
2019-02-02T00:10:57.867Z,14.53
2019-02-02T00:13:29.227Z,13.83
2019-02-02T00:15:59.796Z,12.47
2019-02-02T00:18:30.151Z,13.60
2019-02-02T00:21:01.907Z,13.13
2019-02-02T00:23:32.662Z,12.70
2019-02-02T00:26:05.105Z,12.50
2019-02-02T00:28:37.174Z,12.80
2019-02-02T00:31:08.229Z,11.67
2019-02-02T00:33:39.135Z,12.33
2019-02-02T00:36:10.306Z,10.80
2019-02-02T00:38:41.199Z,12.03
2019-02-02T00:41:12.317Z,11.90
2019-02-02T00:43:44.274Z,11.87
2019-02-02T00:46:17.335Z,12.27
2019-02-02T00:48:48.322Z,12.00
2019-02-02T00:51:19.368Z,12.10
2019-02-02T00:53:50.367Z,11.43
2019-02-02T00:56:21.197Z,11.37
2019-02-02T00:58:52.220Z,11.13
2019-02-02T01:01:23.277Z,11.47
2019-02-02T01:03:55.227Z,14.13
2019-02-02T01:06:25.644Z,13.87
2019-02-02T01:08:56.542Z,11.30
2019-02-02T01:11:27.349Z,10.50
2019-02-02T01:13:58.280Z,10.10
2019-02-02T01:16:30.423Z,10.10
2019-02-02T01:19:03.525Z,9.27
2019-02-02T01:21:34.527Z,10.07
2019-02-02T01:24:06.542Z,8.80
2019-02-02T01:26:38.498Z,9.53
2019-02-02T01:29:09.340Z,8.80
2019-02-02T01:31:40.971Z,8.37
2019-02-02T01:34:12.558Z,8.97
2019-02-02T01:36:45.025Z,8.17
2019-02-02T01:39:16.339Z,9.63
2019-02-02T01:41:47.436Z,7.87
2019-02-02T01:44:18.509Z,7.93
2019-02-02T01:46:49.390Z,7.37
2019-02-02T01:49:20.350Z,8.03
2019-02-02T01:51:51.252Z,6.67
2019-02-02T01:54:22.254Z,7.87
2019-02-02T01:56:52.637Z,7.60
2019-02-02T01:59:24.058Z,7.07
2019-02-02T02:01:55.113Z,7.23
2019-02-02T02:04:25.903Z,7.60
2019-02-02T02:06:56.810Z,6.70
2019-02-02T02:09:27.529Z,8.37
2019-02-02T02:11:58.921Z,7.40
2019-02-02T02:14:29.432Z,7.50
2019-02-02T02:17:00.232Z,7.40
2019-02-02T02:19:30.691Z,8.10
2019-02-02T02:22:01.672Z,6.57
2019-02-02T02:24:32.979Z,7.03
2019-02-02T02:27:03.852Z,6.83
2019-02-02T02:29:34.773Z,7.13
2019-02-02T02:32:05.703Z,6.63
2019-02-02T02:34:36.742Z,6.73
2019-02-02T02:37:07.705Z,6.37
2019-02-02T02:39:38.434Z,6.17
2019-02-02T02:42:08.828Z,6.03
2019-02-02T02:44:39.784Z,6.80
2019-02-02T02:47:10.721Z,6.57
2019-02-02T02:49:41.762Z,6.30
2019-02-02T02:52:12.807Z,6.83
2019-02-02T02:54:43.725Z,6.43
2019-02-02T02:57:14.736Z,6.53
2019-02-02T02:59:45.836Z,5.90
2019-02-02T03:02:16.601Z,6.30
2019-02-02T03:04:47.593Z,6.20
2019-02-02T03:07:19.515Z,5.90
2019-02-02T03:09:52.026Z,5.43
2019-02-02T03:12:23.011Z,6.27
2019-02-02T03:14:53.912Z,6.33
2019-02-02T03:17:24.464Z,5.60
2019-02-02T03:19:55.987Z,5.87
2019-02-02T03:22:28.003Z,6.37
2019-02-02T03:24:59.966Z,6.40
2019-02-02T03:27:31.977Z,5.80
2019-02-02T03:30:02.922Z,5.90
2019-02-02T03:32:33.853Z,5.37
2019-02-02T03:35:05.816Z,5.23
2019-02-02T03:37:37.900Z,5.47
2019-02-02T03:40:11.846Z,5.07
2019-02-02T03:42:43.151Z,5.50
2019-02-02T03:45:15.673Z,5.13
2019-02-02T03:47:48.110Z,5.20
2019-02-02T03:50:19.053Z,5.47
2019-02-02T03:52:50.036Z,5.70
2019-02-02T03:55:21.051Z,5.20
2019-02-02T03:57:51.939Z,5.60
2019-02-02T04:00:23.104Z,5.43
2019-02-02T04:02:53.753Z,5.27
2019-02-02T04:05:26.694Z,4.40
2019-02-02T04:07:59.249Z,5.13
2019-02-02T04:10:30.151Z,4.60
2019-02-02T04:13:03.133Z,5.13
2019-02-02T04:15:34.079Z,4.97
2019-02-02T04:18:05.200Z,5.33
2019-02-02T04:20:36.150Z,4.80
2019-02-02T04:23:07.171Z,4.80
2019-02-02T04:25:38.141Z,4.40
2019-02-02T04:28:09.277Z,4.60
2019-02-02T04:30:41.254Z,4.50
2019-02-02T04:33:14.223Z,4.40
2019-02-02T04:35:45.186Z,5.10
2019-02-02T04:38:16.404Z,4.93
2019-02-02T04:40:47.401Z,4.70
2019-02-02T04:43:18.349Z,4.80
2019-02-02T04:45:49.367Z,4.77
2019-02-02T04:48:20.631Z,4.40
2019-02-02T04:50:53.269Z,4.87
2019-02-02T04:53:24.498Z,4.90
2019-02-02T04:55:56.394Z,5.27
2019-02-02T04:58:28.420Z,4.90
2019-02-02T05:01:00.784Z,4.50
2019-02-02T05:03:31.472Z,4.70
2019-02-02T05:06:02.322Z,4.00
2019-02-02T05:08:33.549Z,4.40
2019-02-02T05:11:04.399Z,4.27
2019-02-02T05:13:35.341Z,4.20
2019-02-02T05:16:06.212Z,4.93
2019-02-02T05:18:37.123Z,3.93
2019-02-02T05:21:08.129Z,3.90
2019-02-02T05:23:39.107Z,5.00
2019-02-02T05:26:10.139Z,4.50
2019-02-02T05:28:41.512Z,4.97
2019-02-02T05:31:12.663Z,4.33
2019-02-02T05:33:44.296Z,4.20
2019-02-02T05:36:15.350Z,4.47
2019-02-02T05:38:46.209Z,4.73
2019-02-02T05:41:16.643Z,4.60
2019-02-02T05:43:47.498Z,3.70
2019-02-02T05:46:18.637Z,4.80
2019-02-02T05:48:49.518Z,3.90
2019-02-02T05:51:20.739Z,4.27
2019-02-02T05:53:51.642Z,4.50
2019-02-02T05:56:22.685Z,5.37
2019-02-02T05:58:54.101Z,4.77
2019-02-02T06:01:25.028Z,3.67
2019-02-02T06:03:55.730Z,4.37
2019-02-02T06:06:26.856Z,4.53
2019-02-02T06:08:57.790Z,4.60
2019-02-02T06:11:28.727Z,3.93
2019-02-02T06:13:59.582Z,4.50
2019-02-02T06:16:30.502Z,4.43
2019-02-02T06:19:01.380Z,3.93
2019-02-02T06:21:32.201Z,3.93
2019-02-02T06:24:02.714Z,3.90
2019-02-02T06:26:34.156Z,3.63
2019-02-02T06:29:05.183Z,3.60
2019-02-02T06:31:35.979Z,4.17
2019-02-02T06:34:06.870Z,4.40
2019-02-02T06:36:37.935Z,4.17
2019-02-02T06:39:09.137Z,3.47
2019-02-02T06:41:39.768Z,4.33
2019-02-02T06:44:10.736Z,4.50
2019-02-02T06:46:43.592Z,4.67
2019-02-02T06:49:15.802Z,4.13
2019-02-02T06:51:46.788Z,3.93
2019-02-02T06:54:18.051Z,4.03
2019-02-02T06:56:48.970Z,3.93
2019-02-02T06:59:19.982Z,4.47
2019-02-02T07:01:50.840Z,4.37
2019-02-02T07:04:23.816Z,4.60
2019-02-02T07:06:54.851Z,4.97
2019-02-02T07:09:25.220Z,4.57
2019-02-02T07:11:56.972Z,4.70
2019-02-02T07:14:27.954Z,4.10
2019-02-02T07:16:58.921Z,3.60
2019-02-02T07:19:30.878Z,3.40
2019-02-02T07:22:04.048Z,4.43
2019-02-02T07:24:35.161Z,4.55
2019-02-02T07:27:05.931Z,4.97
2019-02-02T07:29:37.224Z,4.50
2019-02-02T07:32:08.018Z,4.60
2019-02-02T07:34:38.502Z,4.50
2019-02-02T07:37:08.996Z,4.47
2019-02-02T07:39:40.130Z,3.83
2019-02-02T07:42:11.186Z,4.30
2019-02-02T07:44:42.225Z,4.50
2019-02-02T07:47:13.067Z,4.40
2019-02-02T07:49:44.385Z,4.37
2019-02-02T07:52:15.177Z,5.10
2019-02-02T07:54:46.132Z,4.40
2019-02-02T07:57:17.634Z,3.97
2019-02-02T07:59:49.230Z,4.17
2019-02-02T08:02:20.495Z,4.20
2019-02-02T08:04:53.942Z,4.23
2019-02-02T08:07:25.060Z,4.60
2019-02-02T08:09:57.945Z,3.77
2019-02-02T08:12:28.461Z,4.07
2019-02-02T08:14:59.458Z,4.20
2019-02-02T08:17:32.554Z,3.87
2019-02-02T08:20:05.062Z,3.80
2019-02-02T08:22:38.242Z,4.13
2019-02-02T08:25:10.420Z,4.13
2019-02-02T08:27:43.342Z,4.80
2019-02-02T08:30:20.525Z,4.50
2019-02-02T08:32:51.103Z,4.10
2019-02-02T08:35:22.286Z,4.30
2019-02-02T08:37:53.026Z,5.07
2019-02-02T08:40:25.137Z,3.97
2019-02-02T08:42:57.412Z,3.73
2019-02-02T08:45:29.440Z,4.57
2019-02-02T08:48:01.388Z,4.60
2019-02-02T08:50:35.815Z,4.60
2019-02-02T08:53:08.246Z,5.07
2019-02-02T08:55:38.885Z,3.73
2019-02-02T08:58:09.452Z,4.07
2019-02-02T09:00:40.543Z,4.70
2019-02-02T09:03:12.031Z,4.33
2019-02-02T09:05:42.474Z,5.37
2019-02-02T09:08:13.423Z,5.47
2019-02-02T09:10:44.427Z,7.27
2019-02-02T09:13:15.514Z,7.50
2019-02-02T09:15:47.712Z,7.17
2019-02-02T09:18:20.584Z,7.00
2019-02-02T09:20:51.660Z,6.80
2019-02-02T09:23:24.484Z,6.67
2019-02-02T09:25:56.096Z,5.63
2019-02-02T09:28:27.049Z,5.63
2019-02-02T09:30:57.971Z,5.07
2019-02-02T09:33:28.541Z,5.33
2019-02-02T09:36:00.789Z,5.60
2019-02-02T09:38:31.135Z,5.00
2019-02-02T09:41:01.709Z,4.57
2019-02-02T09:43:32.630Z,5.27
2019-02-02T09:46:04.770Z,4.30
2019-02-02T09:48:36.856Z,5.00
2019-02-02T09:51:10.331Z,4.23
2019-02-02T09:53:42.773Z,4.80
2019-02-02T09:56:13.690Z,4.43
2019-02-02T09:58:44.727Z,4.80
2019-02-02T10:01:27.092Z,4.40
2019-02-02T10:03:49.688Z,4.73
2019-02-02T10:06:20.848Z,4.60
2019-02-02T10:08:51.240Z,4.63
2019-02-02T10:11:24.291Z,4.87
2019-02-02T10:13:56.802Z,4.80
2019-02-02T10:16:28.783Z,4.13
2019-02-02T10:19:01.830Z,4.43
2019-02-02T10:21:32.821Z,4.37
2019-02-02T10:24:04.469Z,3.90
2019-02-02T10:26:34.812Z,5.23
2019-02-02T10:29:05.568Z,4.40
2019-02-02T10:31:39.679Z,3.90
2019-02-02T10:34:12.353Z,4.20
2019-02-02T10:36:43.841Z,4.33
2019-02-02T10:39:14.933Z,4.20
2019-02-02T10:41:46.015Z,5.13
2019-02-02T10:44:16.954Z,4.37
2019-02-02T10:46:47.920Z,4.17
2019-02-02T10:49:18.879Z,5.07
2019-02-02T10:51:49.994Z,4.27
2019-02-02T10:54:20.864Z,3.67
2019-02-02T10:56:51.887Z,4.40
2019-02-02T10:59:23.098Z,3.33
2019-02-02T11:01:53.869Z,3.67
2019-02-02T11:04:25.280Z,3.47
2019-02-02T11:06:56.036Z,4.17
2019-02-02T11:09:29.116Z,4.60
2019-02-02T11:12:02.153Z,4.40
2019-02-02T11:14:35.256Z,5.00
2019-02-02T11:17:08.159Z,3.80
2019-02-02T11:19:40.930Z,4.30
2019-02-02T11:22:13.301Z,4.43
2019-02-02T11:24:44.085Z,5.00
2019-02-02T11:27:15.305Z,4.87
2019-02-02T11:29:46.290Z,3.73
2019-02-02T11:32:17.140Z,4.10
2019-02-02T11:34:48.089Z,4.00
2019-02-02T11:37:19.195Z,3.60
2019-02-02T11:39:50.168Z,4.53
2019-02-02T11:42:21.176Z,3.40
2019-02-02T11:44:52.229Z,4.70
2019-02-02T11:47:25.120Z,4.27
2019-02-02T11:49:57.917Z,4.37
2019-02-02T11:52:28.278Z,3.53
2019-02-02T11:55:01.122Z,3.57
2019-02-02T11:57:32.397Z,3.77
2019-02-02T12:00:08.736Z,4.23
2019-02-02T12:02:49.182Z,3.83
2019-02-02T12:05:14.603Z,4.20
2019-02-02T12:07:45.374Z,3.50
2019-02-02T12:10:17.895Z,3.80
2019-02-02T12:12:50.464Z,3.93
2019-02-02T12:15:21.434Z,3.00
2019-02-02T12:17:52.467Z,3.00
2019-02-02T12:20:23.733Z,3.10
2019-02-02T12:22:54.267Z,3.30
2019-02-02T12:25:26.379Z,3.57
2019-02-02T12:27:59.392Z,3.90
2019-02-02T12:30:35.458Z,3.40
2019-02-02T12:33:06.839Z,3.53
2019-02-02T12:35:37.370Z,3.93
2019-02-02T12:38:08.461Z,3.23
2019-02-02T12:40:39.683Z,3.80
2019-02-02T12:43:11.649Z,2.93
2019-02-02T12:45:47.115Z,3.00
2019-02-02T12:48:18.421Z,3.60
2019-02-02T12:50:49.634Z,3.17
2019-02-02T12:53:20.582Z,3.90
2019-02-02T12:55:51.405Z,3.17
2019-02-02T12:58:22.500Z,3.30
2019-02-02T13:00:53.476Z,3.30
2019-02-02T13:03:23.817Z,3.43
2019-02-02T13:05:55.656Z,3.13
2019-02-02T13:08:26.809Z,3.80
2019-02-02T13:10:59.508Z,3.80
2019-02-02T13:13:31.548Z,3.40
2019-02-02T13:16:04.567Z,2.90
2019-02-02T13:18:34.908Z,3.27
2019-02-02T13:21:06.735Z,3.40
2019-02-02T13:23:39.526Z,4.20
2019-02-02T13:26:11.671Z,3.40
2019-02-02T13:28:42.586Z,3.60
2019-02-02T13:31:13.695Z,3.13
2019-02-02T13:33:44.636Z,3.43
2019-02-02T13:36:15.746Z,2.67
2019-02-02T13:38:46.605Z,3.30
2019-02-02T13:41:17.256Z,3.37
2019-02-02T13:43:48.704Z,3.73
2019-02-02T13:46:19.090Z,3.40
2019-02-02T13:48:51.155Z,3.40
2019-02-02T13:51:21.778Z,3.83
2019-02-02T13:53:52.535Z,2.90
2019-02-02T13:56:23.512Z,3.40
2019-02-02T13:58:54.579Z,3.23
2019-02-02T14:01:25.467Z,3.93
2019-02-02T14:03:56.679Z,3.47
2019-02-02T14:06:27.563Z,4.00
2019-02-02T14:08:58.515Z,3.13
2019-02-02T14:11:28.951Z,3.57
2019-02-02T14:14:00.227Z,3.33
2019-02-02T14:16:31.436Z,3.30
2019-02-02T14:19:03.015Z,3.57
2019-02-02T14:21:33.514Z,2.80
2019-02-02T14:24:03.844Z,3.57
2019-02-02T14:26:35.251Z,3.60
2019-02-02T14:29:05.878Z,3.70
2019-02-02T14:31:37.365Z,3.60
2019-02-02T14:34:08.260Z,3.07
2019-02-02T14:36:39.184Z,4.00
2019-02-02T14:39:11.914Z,3.13
2019-02-02T14:41:43.893Z,3.90
2019-02-02T14:44:15.006Z,3.20
2019-02-02T14:46:45.943Z,4.00
2019-02-02T14:49:17.807Z,3.27
2019-02-02T14:51:50.886Z,3.27
2019-02-02T14:54:22.097Z,3.50
2019-02-02T14:56:52.974Z,3.40
2019-02-02T14:59:23.916Z,3.20
2019-02-02T15:01:55.098Z,4.10
2019-02-02T15:04:25.911Z,3.70
2019-02-02T15:06:57.072Z,3.63
2019-02-02T15:09:29.001Z,3.07
2019-02-02T15:12:01.171Z,3.80
2019-02-02T15:14:32.142Z,3.80
2019-02-02T15:17:04.207Z,2.80
2019-02-02T15:19:35.137Z,3.40
2019-02-02T15:22:08.138Z,3.70
2019-02-02T15:24:39.134Z,3.77
2019-02-02T15:27:10.328Z,6.67
2019-02-02T15:29:41.395Z,2.80
2019-02-02T15:32:12.274Z,3.20
2019-02-02T15:34:43.178Z,3.90
2019-02-02T15:37:14.274Z,3.70
2019-02-02T15:39:45.319Z,3.70
2019-02-02T15:42:16.299Z,3.83
2019-02-02T15:44:47.301Z,4.03
2019-02-02T15:47:18.316Z,3.40
2019-02-02T15:49:50.649Z,3.67
2019-02-02T15:52:23.028Z,3.10
2019-02-02T15:54:53.949Z,3.80
2019-02-02T15:57:24.882Z,4.03
2019-02-02T15:59:55.456Z,4.17
2019-02-02T16:02:25.901Z,3.80
2019-02-02T16:04:57.402Z,3.37
2019-02-02T16:07:28.850Z,3.23
2019-02-02T16:09:59.624Z,3.30
2019-02-02T16:12:30.602Z,3.93
2019-02-02T16:15:01.362Z,3.27
2019-02-02T16:17:32.440Z,3.10
2019-02-02T16:20:03.447Z,2.10
2019-02-02T16:22:34.396Z,2.70
2019-02-02T16:25:06.705Z,3.23
2019-02-02T16:27:39.585Z,3.83
2019-02-02T16:30:12.474Z,3.73
2019-02-02T16:32:44.361Z,3.93
2019-02-02T16:35:15.681Z,4.40
2019-02-02T16:37:46.451Z,4.00
2019-02-02T16:40:19.467Z,3.73
2019-02-02T16:42:53.509Z,3.80
2019-02-02T16:45:27.209Z,4.23
2019-02-02T16:47:58.652Z,7.30
2019-02-02T16:50:29.685Z,7.80
2019-02-02T16:53:00.504Z,9.67
2019-02-02T16:55:32.236Z,7.77
2019-02-02T16:58:03.241Z,8.90
2019-02-02T17:00:34.195Z,9.50
2019-02-02T17:03:05.049Z,7.90
2019-02-02T17:05:36.110Z,8.60
2019-02-02T17:08:06.943Z,8.17
2019-02-02T17:10:38.649Z,8.60
2019-02-02T17:13:09.013Z,9.63
2019-02-02T17:15:39.691Z,10.27
2019-02-02T17:18:10.607Z,10.50
2019-02-02T17:20:45.624Z,11.10
2019-02-02T17:23:18.758Z,11.17
2019-02-02T17:25:49.649Z,10.20
2019-02-02T17:28:20.583Z,10.50
2019-02-02T17:30:51.664Z,9.90
2019-02-02T17:33:22.770Z,10.40
2019-02-02T17:35:53.894Z,9.73
2019-02-02T17:38:25.734Z,25.70
2019-02-02T17:40:58.795Z,15.00
2019-02-02T17:43:31.723Z,13.97
2019-02-02T17:46:02.829Z,12.70
2019-02-02T17:48:34.976Z,11.63
2019-02-02T17:51:07.902Z,11.47
2019-02-02T17:53:38.982Z,11.50
2019-02-02T17:56:09.737Z,12.33
2019-02-02T17:58:41.051Z,14.77
2019-02-02T18:01:11.861Z,12.50
2019-02-02T18:03:42.851Z,9.60
2019-02-02T18:06:13.966Z,8.77
2019-02-02T18:08:45.014Z,10.40
2019-02-02T18:11:15.824Z,11.07
2019-02-02T18:13:46.876Z,10.37
2019-02-02T18:16:17.915Z,12.40
2019-02-02T18:18:48.977Z,12.87
2019-02-02T18:21:19.730Z,11.17
2019-02-02T18:23:50.494Z,12.90
2019-02-02T18:26:21.013Z,12.47
2019-02-02T18:28:53.956Z,11.50
2019-02-02T18:31:27.400Z,12.83
2019-02-02T18:34:01.990Z,12.17
2019-02-02T18:36:35.009Z,12.50
2019-02-02T18:39:09.530Z,11.90
2019-02-02T18:41:42.005Z,12.00
2019-02-02T18:44:13.095Z,11.27
2019-02-02T18:46:44.435Z,11.03
2019-02-02T18:49:15.008Z,11.07
2019-02-02T18:51:46.144Z,11.30
2019-02-02T18:54:17.183Z,10.33
2019-02-02T18:56:47.903Z,10.50
2019-02-02T18:59:19.003Z,11.43
2019-02-02T19:01:49.857Z,12.13
2019-02-02T19:04:20.787Z,11.67
2019-02-02T19:06:51.206Z,10.10
2019-02-02T19:09:22.128Z,10.63
2019-02-02T19:11:53.145Z,11.07
2019-02-02T19:14:24.624Z,12.03
2019-02-02T19:17:01.059Z,11.50
2019-02-02T19:19:29.342Z,12.13
2019-02-02T19:22:00.212Z,12.17
2019-02-02T19:24:31.161Z,12.60
2019-02-02T19:27:02.279Z,13.20
2019-02-02T19:29:33.229Z,12.00
2019-02-02T19:32:06.775Z,12.57
2019-02-02T19:34:38.326Z,12.57
2019-02-02T19:37:09.210Z,12.30
2019-02-02T19:39:45.116Z,11.50
2019-02-02T19:42:14.366Z,10.97
2019-02-02T19:44:45.196Z,11.50
2019-02-02T19:47:16.510Z,12.20
2019-02-02T19:49:47.384Z,12.17
2019-02-02T19:52:18.758Z,13.57
2019-02-02T19:54:51.330Z,13.20
2019-02-02T19:57:22.285Z,12.83
2019-02-02T19:59:53.407Z,13.33
2019-02-02T20:02:24.458Z,14.50
2019-02-02T20:04:55.383Z,13.30
2019-02-02T20:07:25.881Z,14.40
2019-02-02T20:09:58.289Z,13.40
2019-02-02T20:12:29.473Z,13.83
2019-02-02T20:15:02.948Z,13.50
2019-02-02T20:17:34.362Z,14.37
2019-02-02T20:20:10.446Z,14.87
2019-02-02T20:22:41.415Z,15.67
2019-02-02T20:25:12.607Z,15.70
2019-02-02T20:27:43.622Z,15.27
2019-02-02T20:30:19.154Z,16.00
2019-02-02T20:32:50.519Z,16.17
2019-02-02T20:35:21.402Z,15.57
2019-02-02T20:37:52.463Z,15.10
2019-02-02T20:40:24.456Z,15.27
2019-02-02T20:42:57.631Z,15.03
2019-02-02T20:45:31.090Z,15.50
2019-02-02T20:48:03.520Z,16.50
2019-02-02T20:50:36.708Z,15.80
2019-02-02T20:53:09.444Z,17.03
2019-02-02T20:55:43.409Z,17.37
2019-02-02T20:58:17.213Z,16.80
2019-02-02T21:00:49.545Z,19.73
2019-02-02T21:03:20.448Z,17.20
2019-02-02T21:05:52.644Z,16.80
2019-02-02T21:08:25.682Z,18.10
2019-02-02T21:10:56.711Z,16.80
2019-02-02T21:13:29.661Z,18.50
2019-02-02T21:16:02.687Z,17.77
2019-02-02T21:18:33.708Z,18.60
2019-02-02T21:21:06.350Z,17.10
2019-02-02T21:23:36.803Z,16.10
2019-02-02T21:26:07.673Z,17.20
2019-02-02T21:28:49.782Z,18.10
2019-02-02T21:31:12.788Z,17.50
2019-02-02T21:33:43.888Z,17.10
2019-02-02T21:36:16.499Z,16.90
2019-02-02T21:38:48.763Z,17.60
2019-02-02T21:41:19.710Z,18.67
2019-02-02T21:43:50.702Z,19.03
2019-02-02T21:46:21.728Z,17.40
2019-02-02T21:48:52.600Z,17.00
2019-02-02T21:51:23.392Z,17.70
2019-02-02T21:53:53.905Z,18.47
2019-02-02T21:56:24.948Z,19.60
2019-02-02T21:58:55.899Z,21.20
2019-02-02T22:01:26.393Z,19.70
2019-02-02T22:03:57.968Z,19.47
2019-02-02T22:06:30.657Z,20.50
2019-02-02T22:09:04.217Z,20.07
2019-02-02T22:11:36.871Z,21.10
2019-02-02T22:14:07.982Z,19.73
2019-02-02T22:16:39.057Z,19.67
2019-02-02T22:19:09.837Z,22.27
2019-02-02T22:21:41.030Z,19.53
2019-02-02T22:24:12.056Z,19.87
2019-02-02T22:26:45.082Z,20.13
2019-02-02T22:29:16.017Z,20.07
2019-02-02T22:31:46.927Z,20.53
2019-02-02T22:34:18.077Z,20.53
2019-02-02T22:36:49.216Z,19.53
2019-02-02T22:39:20.043Z,20.50
2019-02-02T22:41:50.993Z,20.70
2019-02-02T22:44:22.141Z,20.10
2019-02-02T22:46:53.265Z,20.43
2019-02-02T22:49:24.058Z,20.90
2019-02-02T22:51:55.250Z,20.57
2019-02-02T22:54:26.017Z,22.20
2019-02-02T22:56:57.207Z,20.43
2019-02-02T22:59:30.101Z,21.37
2019-02-02T23:02:09.966Z,21.37
2019-02-02T23:05:00.719Z,21.33
2019-02-02T23:07:58.731Z,20.33
2019-02-02T23:11:11.467Z,21.20
2019-02-02T23:14:25.280Z,20.80
2019-02-02T23:16:55.747Z,20.80
2019-02-02T23:19:26.498Z,21.77
2019-02-02T23:21:57.537Z,20.63
2019-02-02T23:24:28.367Z,19.73
2019-02-02T23:26:59.160Z,20.20
2019-02-02T23:29:30.257Z,20.97
2019-02-02T23:32:01.170Z,21.83
2019-02-02T23:34:31.544Z,20.27
2019-02-02T23:37:03.321Z,20.40
2019-02-02T23:39:34.291Z,21.43
2019-02-02T23:42:05.431Z,21.07
2019-02-02T23:44:36.244Z,20.57
2019-02-02T23:47:07.255Z,21.40
2019-02-02T23:49:38.223Z,18.50
2019-02-02T23:52:09.246Z,19.90
2019-02-02T23:54:39.965Z,20.17
2019-02-02T23:57:10.462Z,19.67
2019-02-02T23:59:41.486Z,21.03
